Time;durP1;ratioP1;P1;durP2;ratioP2;P2;SDS_P1;SDS_P2;PMS_P1;PMS_P2;Temp;Humidity;BMP_temperature;BMP_pressure;BME280_temperature;BME280_humidity;BME280_pressure;Samples;Min_cycle;Max_cycle;Signal;HPM_P1;HPM_P2
2021/12/29 00:02:46;;;;;;;41.78;22.38;;;21.90;36.80;;;;;;6171637;27;83906;-65
2021/12/29 00:05:47;;;;;;;37.30;22.80;;;21.90;36.40;;;;;;6157131;28;84072;-66
2021/12/29 00:08:47;;;;;;;38.05;22.13;;;21.90;36.20;;;;;;6177241;27;82907;-66
2021/12/29 00:11:48;;;;;;;35.65;22.17;;;21.80;36.50;;;;;;6157552;28;83279;-67
2021/12/29 00:14:48;;;;;;;37.22;22.48;;;21.90;37.00;;;;;;6171160;27;83264;-66
2021/12/29 00:17:49;;;;;;;35.40;21.90;;;21.80;36.60;;;;;;6173820;27;83014;-66
2021/12/29 00:20:50;;;;;;;31.75;20.67;;;21.80;36.40;;;;;;6171281;27;83321;-67
2021/12/29 00:23:51;;;;;;;37.83;21.42;;;21.80;36.40;;;;;;6156920;28;83801;-66
2021/12/29 00:26:52;;;;;;;34.85;20.65;;;21.80;36.30;;;;;;6166832;27;83395;-66
2021/12/29 00:29:52;;;;;;;37.78;21.13;;;21.80;37.00;;;;;;6159610;28;84150;-66
2021/12/29 00:33:11;;;;;;;30.38;18.48;;;21.80;36.60;;;;;;6157492;28;82917;-65
2021/12/29 00:36:30;;;;;;;30.40;19.08;;;21.80;38.00;;;;;;6158380;28;82973;-65
2021/12/29 00:39:49;;;;;;;32.97;20.10;;;21.80;37.30;;;;;;6159567;28;83173;-65
2021/12/29 00:42:50;;;;;;;34.65;19.35;;;21.80;38.00;;;;;;6157042;28;83141;-65
2021/12/29 00:46:12;;;;;;;34.72;19.63;;;21.80;37.60;;;;;;6166456;27;88706;-66
2021/12/29 00:49:12;;;;;;;33.55;19.40;;;21.80;37.70;;;;;;6164078;28;82924;-65
2021/12/29 00:52:13;;;;;;;31.08;18.98;;;21.70;37.10;;;;;;6168779;27;83050;-66
2021/12/29 00:55:13;;;;;;;30.63;18.27;;;21.80;37.60;;;;;;6164116;28;83118;-65
2021/12/29 00:58:14;;;;;;;31.55;19.20;;;21.80;38.00;;;;;;6169411;28;88397;-65
2021/12/29 01:01:14;;;;;;;28.75;17.50;;;21.70;37.40;;;;;;6161205;28;83283;-66
2021/12/29 01:04:15;;;;;;;30.13;17.98;;;21.80;37.40;;;;;;6157987;28;83438;-66
2021/12/29 01:07:15;;;;;;;31.13;18.30;;;21.70;37.30;;;;;;6157298;28;83204;-66
2021/12/29 01:10:16;;;;;;;30.98;18.55;;;21.70;37.10;;;;;;6158223;28;83470;-66
2021/12/29 01:13:19;;;;;;;31.80;17.83;;;21.70;37.50;;;;;;6160156;28;83620;-66
2021/12/29 01:19:33;;;;;;;31.58;18.80;;;21.70;37.60;;;;;;6158248;28;83314;-65
2021/12/29 01:22:33;;;;;;;29.48;17.50;;;21.70;37.50;;;;;;6167836;28;84330;-66
2021/12/29 01:25:34;;;;;;;34.47;19.10;;;21.70;38.20;;;;;;6155587;28;84414;-66
2021/12/29 01:28:34;;;;;;;34.60;19.15;;;21.70;37.30;;;;;;6162395;28;83801;-66
2021/12/29 01:31:34;;;;;;;35.92;19.65;;;21.70;37.50;;;;;;6158735;28;83295;-66
2021/12/29 01:34:35;;;;;;;31.40;18.88;;;21.70;36.90;;;;;;6153990;28;83149;-66
2021/12/29 01:37:36;;;;;;;30.58;18.85;;;21.70;36.90;;;;;;6155671;28;83844;-66
2021/12/29 01:40:36;;;;;;;33.22;19.33;;;21.70;36.70;;;;;;6173964;28;82932;-66
2021/12/29 01:43:37;;;;;;;34.05;19.75;;;21.60;37.10;;;;;;6155780;28;83162;-66
2021/12/29 01:46:37;;;;;;;33.15;20.50;;;21.70;36.70;;;;;;6181977;27;82738;-65
2021/12/29 01:49:40;;;;;;;35.40;20.98;;;21.60;36.70;;;;;;6164360;28;83699;-65
2021/12/29 01:52:41;;;;;;;31.55;19.00;;;21.60;36.40;;;;;;6167038;28;83286;-65
2021/12/29 01:55:42;;;;;;;35.30;21.13;;;21.60;36.50;;;;;;6167659;28;82951;-65
2021/12/29 01:58:42;;;;;;;36.60;21.48;;;21.60;37.10;;;;;;6182833;27;83610;-66
2021/12/29 02:01:43;;;;;;;32.70;19.00;;;21.60;36.10;;;;;;6162989;28;84161;-66
2021/12/29 02:04:43;;;;;;;33.88;20.02;;;21.60;36.90;;;;;;6162491;28;85405;-66
2021/12/29 02:07:44;;;;;;;35.50;20.23;;;21.60;36.30;;;;;;6175076;27;82879;-66
2021/12/29 02:10:46;;;;;;;36.65;20.92;;;21.60;36.20;;;;;;6181580;28;83062;-66
2021/12/29 02:13:47;;;;;;;37.65;21.42;;;21.60;36.50;;;;;;6167745;28;82976;-67
2021/12/29 02:16:47;;;;;;;35.42;20.73;;;21.60;36.50;;;;;;6163513;28;83730;-67
2021/12/29 02:19:48;;;;;;;36.65;20.75;;;21.60;36.30;;;;;;6165642;28;85977;-66
2021/12/29 02:23:14;;;;;;;32.17;19.73;;;21.60;36.20;;;;;;6177948;28;82965;-66
2021/12/29 02:26:14;;;;;;;30.33;18.38;;;21.60;36.60;;;;;;6166307;27;83184;-66
2021/12/29 02:29:15;;;;;;;31.73;18.35;;;21.60;37.40;;;;;;6159680;28;83061;-66
2021/12/29 02:32:15;;;;;;;32.03;18.80;;;21.60;37.20;;;;;;6168067;28;83190;-66
2021/12/29 02:35:16;;;;;;;31.30;18.48;;;21.60;37.40;;;;;;6169103;28;82996;-66
2021/12/29 02:38:16;;;;;;;33.65;18.65;;;21.60;37.30;;;;;;6174315;28;83617;-67
2021/12/29 02:41:17;;;;;;;31.48;18.27;;;21.60;37.30;;;;;;6169766;28;83054;-66
2021/12/29 02:44:24;;;;;;;29.65;17.15;;;21.60;37.40;;;;;;6173375;28;86896;-67
2021/12/29 02:47:25;;;;;;;27.45;17.30;;;21.60;37.80;;;;;;6169472;28;83062;-67
2021/12/29 02:50:25;;;;;;;28.10;16.63;;;21.60;37.80;;;;;;6171286;28;82924;-66
2021/12/29 02:53:26;;;;;;;25.65;16.05;;;21.60;37.50;;;;;;6173070;28;83791;-65
2021/12/29 02:56:26;;;;;;;29.30;17.70;;;21.60;37.70;;;;;;6171163;28;84019;-66
2021/12/29 02:59:27;;;;;;;26.88;16.05;;;21.60;37.60;;;;;;6176160;28;83224;-65
2021/12/29 03:02:27;;;;;;;28.55;16.60;;;21.60;37.80;;;;;;6168525;28;83300;-65
2021/12/29 03:05:28;;;;;;;26.27;16.08;;;21.60;38.20;;;;;;6166427;28;82883;-66
2021/12/29 03:08:28;;;;;;;28.15;16.92;;;21.60;37.90;;;;;;6169257;28;83191;-67
2021/12/29 03:11:29;;;;;;;23.90;13.95;;;21.60;37.50;;;;;;6166789;28;83369;-66
2021/12/29 03:14:29;;;;;;;29.25;17.48;;;21.60;38.30;;;;;;6160961;28;83125;-65
2021/12/29 03:17:30;;;;;;;31.10;17.05;;;21.60;37.00;;;;;;6169949;28;83276;-66
2021/12/29 03:20:31;;;;;;;29.23;17.05;;;21.70;36.60;;;;;;6176190;27;84233;-67
2021/12/29 03:23:31;;;;;;;26.17;15.85;;;21.80;36.00;;;;;;6170977;27;82918;-66
2021/12/29 03:26:32;;;;;;;27.70;15.23;;;21.90;35.50;;;;;;6167635;27;83161;-66
2021/12/29 03:29:32;;;;;;;29.70;17.38;;;21.90;35.30;;;;;;6169357;28;82859;-66
2021/12/29 03:32:39;;;;;;;30.67;17.77;;;22.00;35.10;;;;;;6163847;27;83927;-66
2021/12/29 03:35:40;;;;;;;29.80;17.45;;;22.00;34.80;;;;;;6173028;27;84467;-66
2021/12/29 03:38:40;;;;;;;26.42;16.58;;;22.10;34.50;;;;;;6175557;27;83042;-65
2021/12/29 03:41:41;;;;;;;28.50;16.90;;;22.10;34.40;;;;;;6157575;28;86229;-66
2021/12/29 03:44:41;;;;;;;28.45;17.33;;;22.20;34.20;;;;;;6173234;27;82864;-66
2021/12/29 03:47:42;;;;;;;31.80;18.05;;;22.20;34.00;;;;;;6159249;28;83632;-66
2021/12/29 03:50:42;;;;;;;30.52;18.15;;;22.20;33.80;;;;;;6170463;27;83172;-65
2021/12/29 03:53:43;;;;;;;28.63;16.95;;;22.30;33.90;;;;;;6158638;28;83669;-66
2021/12/29 03:56:43;;;;;;;30.92;17.55;;;22.30;33.70;;;;;;6158407;28;82875;-65
2021/12/29 03:59:44;;;;;;;32.10;18.83;;;22.30;33.70;;;;;;6158141;28;85306;-66
2021/12/29 04:02:44;;;;;;;34.10;18.75;;;22.30;33.70;;;;;;6164983;27;83069;-66
2021/12/29 04:05:45;;;;;;;30.38;18.42;;;22.40;33.90;;;;;;6174191;27;83263;-65
2021/12/29 04:08:45;;;;;;;30.02;18.23;;;22.30;34.00;;;;;;6167870;27;83379;-65
2021/12/29 04:11:50;;;;;;;30.42;18.42;;;22.40;33.80;;;;;;6170088;27;83431;-64
2021/12/29 04:14:51;;;;;;;29.33;17.98;;;22.40;33.50;;;;;;6158452;28;83576;-66
2021/12/29 04:17:57;;;;;;;29.83;18.27;;;22.40;33.70;;;;;;6174342;27;84100;-64
2021/12/29 04:20:58;;;;;;;34.17;20.35;;;22.40;33.80;;;;;;6174181;28;83357;-63
2021/12/29 04:23:58;;;;;;;34.75;20.25;;;22.40;33.50;;;;;;6164887;27;83076;-64
2021/12/29 04:27:00;;;;;;;35.17;19.38;;;22.40;33.50;;;;;;6161111;28;83817;-64
2021/12/29 04:30:00;;;;;;;34.38;19.25;;;22.40;33.80;;;;;;6168857;27;83184;-64
2021/12/29 04:33:01;;;;;;;33.85;18.95;;;22.40;33.50;;;;;;6167787;28;83196;-65
2021/12/29 04:36:01;;;;;;;38.22;19.40;;;22.40;33.50;;;;;;6165863;28;82912;-65
2021/12/29 04:39:02;;;;;;;34.70;19.42;;;22.40;33.70;;;;;;6156871;28;83210;-66
2021/12/29 04:42:02;;;;;;;37.35;20.02;;;22.50;33.80;;;;;;6155544;28;84414;-65
2021/12/29 04:45:03;;;;;;;36.33;19.27;;;22.40;33.90;;;;;;6163253;27;83270;-65
2021/12/29 04:48:10;;;;;;;33.55;18.10;;;22.50;33.80;;;;;;6174096;27;83438;-66
2021/12/29 04:51:15;;;;;;;30.02;16.98;;;22.50;33.80;;;;;;6165216;27;83556;-65
2021/12/29 04:54:15;;;;;;;30.60;17.90;;;22.50;33.80;;;;;;6157457;28;82869;-64
2021/12/29 04:57:16;;;;;;;30.50;16.90;;;22.50;33.60;;;;;;6167030;27;84576;-65
2021/12/29 05:00:17;;;;;;;31.85;18.58;;;22.50;33.50;;;;;;6154860;28;84112;-65
2021/12/29 05:03:17;;;;;;;31.73;18.13;;;22.50;33.60;;;;;;6159170;28;84140;-65
2021/12/29 05:09:37;;;;;;;31.17;17.98;;;22.50;33.80;;;;;;6159196;28;83201;-64
2021/12/29 05:12:37;;;;;;;32.55;17.75;;;22.50;33.70;;;;;;6158358;28;84437;-64
2021/12/29 05:15:38;;;;;;;30.30;18.20;;;22.60;33.50;;;;;;6160161;27;83348;-64
2021/12/29 05:18:38;;;;;;;30.55;17.83;;;22.60;33.70;;;;;;6155867;28;83448;-64
2021/12/29 05:21:39;;;;;;;28.67;17.83;;;22.60;33.90;;;;;;6153456;28;84095;-65
2021/12/29 05:24:39;;;;;;;31.63;18.38;;;22.60;33.80;;;;;;6154724;28;90067;-65
2021/12/29 05:27:40;;;;;;;31.75;18.70;;;22.60;33.70;;;;;;6155288;28;83279;-65
2021/12/29 05:30:40;;;;;;;34.20;18.77;;;22.60;33.80;;;;;;6155822;28;83012;-63
2021/12/29 05:33:40;;;;;;;25.65;15.23;;;22.60;34.50;;;;;;6156375;28;83494;-63
2021/12/29 05:36:41;;;;;;;22.52;13.80;;;22.50;36.10;;;;;;6156678;28;83499;-67
2021/12/29 05:39:41;;;;;;;20.00;12.27;;;22.50;37.80;;;;;;6156186;28;82923;-63
2021/12/29 05:42:42;;;;;;;25.58;12.45;;;22.50;39.00;;;;;;6155724;28;83219;-63
2021/12/29 05:45:43;;;;;;;23.23;14.05;;;22.50;39.90;;;;;;6153133;28;83370;-63
2021/12/29 05:48:43;;;;;;;18.10;11.27;;;22.50;40.30;;;;;;6154382;28;84266;-65
2021/12/29 05:51:43;;;;;;;18.70;11.35;;;22.60;41.00;;;;;;6154351;28;83245;-66
2021/12/29 05:54:44;;;;;;;20.98;12.02;;;22.50;41.80;;;;;;6150024;28;83238;-63
2021/12/29 05:57:44;;;;;;;19.48;11.45;;;22.60;42.40;;;;;;6149830;28;83974;-66
2021/12/29 06:00:45;;;;;;;18.38;10.88;;;22.60;41.80;;;;;;6147833;28;83003;-65
2021/12/29 06:03:46;;;;;;;20.73;12.57;;;22.50;42.50;;;;;;6154720;28;83181;-64
2021/12/29 06:06:46;;;;;;;18.90;11.27;;;22.60;41.80;;;;;;6156479;28;83165;-65
2021/12/29 06:09:47;;;;;;;18.05;10.70;;;22.60;42.50;;;;;;6156085;28;82907;-65
2021/12/29 06:12:47;;;;;;;19.38;10.77;;;22.50;43.10;;;;;;6154403;28;83690;-65
2021/12/29 06:15:48;;;;;;;17.60;11.00;;;22.50;42.70;;;;;;6152713;28;82981;-65
2021/12/29 06:18:48;;;;;;;18.17;10.80;;;22.50;43.10;;;;;;6154287;28;83092;-65
2021/12/29 06:21:49;;;;;;;16.33;10.13;;;22.50;43.00;;;;;;6155368;28;83011;-64
2021/12/29 06:24:52;;;;;;;14.25;8.93;;;22.50;43.10;;;;;;6153245;28;84214;-67
2021/12/29 06:27:53;;;;;;;15.82;10.07;;;22.50;44.20;;;;;;6152311;28;84906;-64
2021/12/29 06:30:53;;;;;;;16.60;10.43;;;22.50;44.30;;;;;;6151857;28;85713;-68
2021/12/29 06:33:54;;;;;;;19.92;11.52;;;22.40;44.00;;;;;;6151719;28;84736;-66
2021/12/29 06:36:54;;;;;;;17.77;10.50;;;22.40;44.20;;;;;;6158336;28;84379;-70
2021/12/29 06:39:55;;;;;;;19.48;11.45;;;22.40;44.10;;;;;;6155756;28;84197;-66
2021/12/29 06:42:56;;;;;;;24.08;14.25;;;22.50;44.20;;;;;;6158798;28;83085;-66
2021/12/29 06:45:56;;;;;;;22.98;13.43;;;22.40;44.50;;;;;;6156595;28;83063;-66
2021/12/29 06:48:56;;;;;;;23.15;13.05;;;22.40;44.80;;;;;;6158656;28;83098;-66
2021/12/29 06:51:57;;;;;;;26.98;15.57;;;22.40;44.80;;;;;;6160342;28;83201;-65
2021/12/29 06:54:58;;;;;;;35.45;18.42;;;22.40;45.00;;;;;;6156854;28;83627;-66
2021/12/29 06:57:58;;;;;;;36.03;16.20;;;22.40;45.10;;;;;;6153128;28;82981;-66
2021/12/29 07:00:58;;;;;;;30.55;17.48;;;22.40;45.20;;;;;;6156589;28;84441;-65
2021/12/29 07:03:59;;;;;;;28.25;17.88;;;22.40;45.70;;;;;;6154572;28;84266;-67
2021/12/29 07:06:59;;;;;;;24.83;15.30;;;22.40;45.40;;;;;;6157964;28;83369;-66
2021/12/29 07:10:00;;;;;;;27.45;15.98;;;22.40;45.60;;;;;;6156135;28;84245;-66
2021/12/29 07:13:00;;;;;;;25.00;15.85;;;22.40;45.50;;;;;;6156293;28;83452;-66
2021/12/29 07:16:01;;;;;;;25.70;15.05;;;22.40;45.40;;;;;;6156535;28;83417;-67
2021/12/29 07:19:01;;;;;;;29.40;15.65;;;22.30;45.20;;;;;;6156708;28;83927;-64
2021/12/29 07:22:03;;;;;;;27.75;15.63;;;22.30;45.30;;;;;;6157749;28;83232;-65
2021/12/29 07:25:04;;;;;;;23.42;14.85;;;22.30;45.10;;;;;;6156347;28;83807;-67
2021/12/29 07:28:05;;;;;;;23.10;14.70;;;22.20;44.60;;;;;;6148111;28;87313;-69
2021/12/29 07:31:05;;;;;;;24.38;14.95;;;22.20;45.10;;;;;;6157087;28;83109;-68
2021/12/29 07:34:07;;;;;;;24.25;14.82;;;22.20;45.10;;;;;;6156674;28;83649;-67
2021/12/29 07:37:07;;;;;;;28.83;13.63;;;22.20;44.80;;;;;;6157265;28;83871;-69
2021/12/29 07:40:08;;;;;;;22.55;13.55;;;22.10;45.10;;;;;;6158103;28;83299;-67
2021/12/29 07:43:09;;;;;;;26.60;15.45;;;22.10;44.90;;;;;;6156970;28;83004;-66
2021/12/29 07:46:12;;;;;;;19.95;12.80;;;22.20;44.90;;;;;;6156388;28;84772;-66
2021/12/29 07:49:13;;;;;;;22.48;13.15;;;22.10;45.10;;;;;;6157529;28;83026;-66
2021/12/29 07:52:13;;;;;;;21.75;11.63;;;22.10;44.70;;;;;;6155346;28;82904;-65
2021/12/29 07:55:14;;;;;;;21.30;12.93;;;22.10;45.50;;;;;;6155540;28;84302;-66
2021/12/29 07:58:14;;;;;;;19.88;12.05;;;22.10;45.90;;;;;;6156310;28;83002;-66
2021/12/29 08:01:15;;;;;;;22.92;12.55;;;22.10;45.90;;;;;;6156161;28;83172;-64
2021/12/29 08:04:15;;;;;;;23.35;12.25;;;22.10;46.30;;;;;;6156094;28;83388;-67
2021/12/29 08:07:16;;;;;;;21.10;12.40;;;22.10;46.60;;;;;;6151811;28;83687;-67
2021/12/29 08:10:17;;;;;;;22.05;11.60;;;22.00;46.50;;;;;;6154862;28;83963;-68
2021/12/29 08:13:17;;;;;;;18.67;11.23;;;22.00;46.50;;;;;;6156261;28;83077;-67
2021/12/29 08:16:18;;;;;;;20.42;11.48;;;22.00;46.30;;;;;;6156254;28;84368;-67
2021/12/29 08:19:18;;;;;;;20.38;12.15;;;22.00;46.00;;;;;;6157109;28;83057;-65
2021/12/29 08:22:19;;;;;;;21.27;11.63;;;22.00;46.80;;;;;;6154119;28;83306;-65
2021/12/29 08:25:19;;;;;;;21.98;12.18;;;22.00;45.90;;;;;;6151920;28;86188;-69
2021/12/29 08:28:22;;;;;;;20.92;11.18;;;22.00;45.80;;;;;;6155229;28;83522;-67
2021/12/29 08:31:22;;;;;;;22.80;11.05;;;21.90;45.60;;;;;;6154867;28;83368;-67
2021/12/29 08:34:23;;;;;;;16.98;10.90;;;21.90;45.30;;;;;;6154180;28;83529;-65
2021/12/29 08:37:23;;;;;;;104.50;51.35;;;21.90;45.20;;;;;;6156488;28;84243;-64
2021/12/29 08:40:24;;;;;;;159.25;80.60;;;21.90;44.40;;;;;;6156122;28;83117;-66
2021/12/29 08:43:24;;;;;;;263.13;124.47;;;21.90;45.50;;;;;;6155869;28;83189;-67
2021/12/29 08:46:25;;;;;;;284.17;132.60;;;21.90;45.00;;;;;;6149721;28;85577;-67
2021/12/29 08:49:26;;;;;;;214.35;104.53;;;22.00;45.30;;;;;;6154083;28;86166;-68
2021/12/29 08:52:26;;;;;;;193.05;96.95;;;22.00;44.80;;;;;;6152988;28;85729;-67
2021/12/29 08:55:27;;;;;;;218.70;109.88;;;22.10;45.20;;;;;;6153685;28;86529;-67
2021/12/29 08:58:27;;;;;;;236.82;116.38;;;22.10;45.00;;;;;;6151428;28;85352;-66
2021/12/29 09:01:28;;;;;;;245.15;116.80;;;22.20;44.90;;;;;;6152198;28;86373;-67
2021/12/29 09:04:28;;;;;;;203.82;100.65;;;22.20;44.50;;;;;;6151558;28;85705;-67
2021/12/29 09:07:29;;;;;;;167.45;81.80;;;22.20;44.40;;;;;;6151468;28;86369;-68
2021/12/29 09:10:29;;;;;;;137.43;68.78;;;22.20;44.50;;;;;;6154107;28;85520;-66
2021/12/29 09:13:30;;;;;;;117.53;58.78;;;22.30;44.40;;;;;;6151373;28;83043;-67
2021/12/29 09:16:30;;;;;;;100.05;51.78;;;22.40;44.70;;;;;;6148345;28;83091;-67
2021/12/29 09:19:34;;;;;;;88.35;42.28;;;22.40;44.60;;;;;;6154359;28;83441;-69
2021/12/29 09:22:34;;;;;;;78.18;38.55;;;22.40;44.30;;;;;;6150986;28;84217;-66
2021/12/29 09:25:35;;;;;;;77.63;39.63;;;22.40;44.10;;;;;;6151857;28;83092;-66
2021/12/29 09:28:35;;;;;;;71.38;36.08;;;22.50;43.90;;;;;;6153231;28;85090;-66
2021/12/29 09:31:36;;;;;;;57.53;29.77;;;22.50;44.10;;;;;;6151519;28;83980;-67
2021/12/29 09:34:36;;;;;;;59.50;29.35;;;22.50;44.20;;;;;;6162505;28;83437;-71
2021/12/29 09:37:37;;;;;;;51.90;26.52;;;22.50;44.30;;;;;;6147849;28;83294;-67
2021/12/29 09:40:38;;;;;;;45.25;25.10;;;22.50;44.40;;;;;;6181091;28;87312;-66
2021/12/29 09:43:38;;;;;;;45.35;23.58;;;22.50;44.30;;;;;;6151773;28;82980;-67
2021/12/29 09:46:39;;;;;;;48.35;22.73;;;22.50;44.00;;;;;;6151309;28;83056;-67
2021/12/29 09:49:39;;;;;;;37.55;19.52;;;22.50;44.60;;;;;;6152564;28;90224;-67
2021/12/29 09:52:40;;;;;;;35.95;19.08;;;22.40;44.50;;;;;;6152566;28;84278;-68
2021/12/29 09:55:40;;;;;;;35.78;18.33;;;22.40;44.80;;;;;;6155032;28;83548;-66
2021/12/29 09:58:41;;;;;;;33.20;16.75;;;22.40;44.60;;;;;;6154696;28;83015;-67
2021/12/29 10:01:41;;;;;;;30.25;16.45;;;22.30;44.00;;;;;;6154103;28;83408;-66
2021/12/29 10:04:42;;;;;;;30.35;16.85;;;22.40;44.10;;;;;;6148521;28;82994;-66
2021/12/29 10:07:42;;;;;;;36.05;16.83;;;22.30;43.90;;;;;;6155239;28;83099;-66
2021/12/29 10:10:43;;;;;;;26.13;13.95;;;22.30;43.60;;;;;;6160068;28;83020;-67
2021/12/29 10:13:43;;;;;;;25.30;15.23;;;22.30;43.50;;;;;;6161102;28;83348;-68
2021/12/29 10:16:44;;;;;;;25.05;14.63;;;22.30;42.80;;;;;;6158553;28;83775;-65
2021/12/29 10:19:44;;;;;;;23.20;14.75;;;22.30;42.80;;;;;;6158000;28;89747;-66
2021/12/29 10:22:45;;;;;;;24.73;13.32;;;22.30;42.40;;;;;;6155510;28;84421;-67
2021/12/29 10:25:45;;;;;;;24.80;13.73;;;22.30;42.10;;;;;;6158786;28;83457;-66
2021/12/29 10:28:47;;;;;;;22.83;13.10;;;22.20;41.80;;;;;;6152420;28;86066;-66
2021/12/29 10:31:47;;;;;;;22.48;12.13;;;22.30;42.30;;;;;;6159026;28;83533;-67
2021/12/29 10:34:48;;;;;;;25.35;12.95;;;22.30;42.20;;;;;;6151933;28;82964;-66
2021/12/29 10:37:48;;;;;;;21.88;12.55;;;22.30;41.60;;;;;;6155249;28;83225;-69
2021/12/29 10:40:49;;;;;;;26.27;13.60;;;22.30;41.80;;;;;;6150451;28;82979;-69
2021/12/29 10:43:49;;;;;;;24.05;13.55;;;22.30;42.10;;;;;;6153653;28;83204;-70
2021/12/29 10:46:52;;;;;;;38.15;13.70;;;22.30;42.80;;;;;;6153314;28;82803;-68
2021/12/29 10:49:53;;;;;;;21.40;12.50;;;22.30;43.40;;;;;;6158361;28;83051;-65
2021/12/29 10:52:54;;;;;;;20.40;12.65;;;22.40;44.00;;;;;;6156478;28;84615;-69
2021/12/29 10:55:54;;;;;;;24.05;11.90;;;22.40;46.10;;;;;;6157758;28;84238;-68
2021/12/29 10:58:55;;;;;;;23.52;13.07;;;22.40;46.30;;;;;;6153365;28;83078;-66
2021/12/29 11:01:55;;;;;;;22.27;13.40;;;22.40;47.30;;;;;;6160016;28;83219;-67
2021/12/29 11:04:56;;;;;;;23.23;12.50;;;22.50;47.40;;;;;;6154757;28;83547;-69
2021/12/29 11:07:56;;;;;;;23.25;12.73;;;22.50;47.30;;;;;;6160007;28;83572;-67
2021/12/29 11:10:57;;;;;;;21.52;12.65;;;22.50;47.40;;;;;;6158227;28;83087;-66
2021/12/29 11:13:59;;;;;;;19.88;12.13;;;22.40;48.10;;;;;;6158900;28;84082;-65
2021/12/29 11:17:00;;;;;;;19.98;10.93;;;22.40;47.90;;;;;;6156179;28;83251;-68
2021/12/29 11:20:00;;;;;;;18.33;11.05;;;22.40;47.20;;;;;;6156052;28;83157;-67
2021/12/29 11:23:01;;;;;;;18.00;10.95;;;22.40;46.90;;;;;;6157680;28;83309;-67
2021/12/29 11:26:01;;;;;;;17.95;11.20;;;22.30;46.70;;;;;;6159610;28;83979;-68
2021/12/29 11:29:02;;;;;;;16.58;10.32;;;22.30;46.30;;;;;;6157206;28;83643;-67
2021/12/29 11:32:02;;;;;;;17.38;10.43;;;22.30;45.90;;;;;;6156859;28;83349;-67
2021/12/29 11:35:03;;;;;;;20.13;10.18;;;22.30;45.80;;;;;;6153623;28;83538;-68
2021/12/29 11:38:04;;;;;;;13.32;9.32;;;22.30;45.30;;;;;;6156055;28;85253;-66
2021/12/29 11:41:05;;;;;;;20.90;10.55;;;22.30;45.20;;;;;;6160948;28;82868;-65
2021/12/29 11:44:05;;;;;;;18.38;11.18;;;22.30;44.90;;;;;;6155875;28;82946;-68
2021/12/29 11:47:06;;;;;;;16.63;10.68;;;22.30;44.00;;;;;;6157600;28;84233;-67
2021/12/29 11:50:07;;;;;;;18.58;11.27;;;22.30;43.60;;;;;;6157963;28;82759;-67
2021/12/29 11:53:07;;;;;;;17.02;10.00;;;22.30;43.00;;;;;;6157547;28;83448;-67
2021/12/29 11:56:08;;;;;;;18.77;10.80;;;22.30;42.90;;;;;;6159168;28;83482;-67
2021/12/29 11:59:09;;;;;;;17.50;10.38;;;22.40;42.70;;;;;;6156684;28;82990;-67
2021/12/29 12:02:09;;;;;;;14.32;9.50;;;22.30;42.60;;;;;;6157884;28;83001;-68
2021/12/29 12:05:10;;;;;;;17.38;11.00;;;22.30;42.40;;;;;;6161214;28;83005;-68
2021/12/29 12:08:10;;;;;;;17.13;11.45;;;22.40;42.00;;;;;;6157694;28;84005;-68
2021/12/29 12:11:11;;;;;;;15.65;10.18;;;22.30;42.00;;;;;;6148383;28;84220;-69
2021/12/29 12:14:11;;;;;;;16.23;9.48;;;22.20;41.70;;;;;;6148969;28;84894;-68
2021/12/29 12:17:12;;;;;;;20.08;10.60;;;22.20;41.50;;;;;;6156019;28;82941;-68
2021/12/29 12:20:14;;;;;;;16.42;10.55;;;22.30;41.30;;;;;;6153563;28;83873;-68
2021/12/29 12:23:16;;;;;;;18.42;10.63;;;22.40;41.10;;;;;;6153386;28;83253;-70
2021/12/29 12:26:21;;;;;;;18.15;11.25;;;22.40;41.00;;;;;;6152649;28;83473;-70
2021/12/29 12:29:22;;;;;;;16.35;10.20;;;22.50;40.60;;;;;;6156243;28;83765;-67
2021/12/29 12:32:23;;;;;;;19.67;10.25;;;22.50;40.60;;;;;;6154974;28;83291;-67
2021/12/29 12:35:23;;;;;;;17.35;10.32;;;22.50;40.60;;;;;;6155170;28;84110;-70
2021/12/29 12:38:24;;;;;;;15.65;10.80;;;22.60;40.40;;;;;;6155877;28;84082;-71
2021/12/29 12:41:24;;;;;;;17.05;11.18;;;22.60;40.80;;;;;;6155914;28;83434;-68
2021/12/29 12:44:25;;;;;;;15.80;10.70;;;22.60;40.30;;;;;;6156209;28;84030;-68
2021/12/29 12:47:25;;;;;;;16.38;10.85;;;22.60;39.90;;;;;;6157714;28;83318;-71
2021/12/29 12:50:26;;;;;;;16.35;10.45;;;22.60;39.60;;;;;;6155722;28;85451;-66
2021/12/29 12:53:26;;;;;;;14.98;9.57;;;22.70;39.60;;;;;;6156540;28;84105;-67
2021/12/29 12:56:27;;;;;;;15.60;9.65;;;22.70;39.30;;;;;;6152163;28;83026;-67
2021/12/29 12:59:27;;;;;;;16.02;10.13;;;22.70;39.30;;;;;;6156304;28;80480;-69
2021/12/29 13:02:28;;;;;;;17.95;10.25;;;22.70;39.20;;;;;;6154019;28;83210;-68
2021/12/29 13:05:29;;;;;;;18.83;11.38;;;22.70;39.30;;;;;;6151280;28;83076;-71
2021/12/29 13:08:29;;;;;;;16.58;10.45;;;22.70;39.80;;;;;;6155782;28;83853;-72
2021/12/29 13:11:32;;;;;;;20.10;11.88;;;22.70;39.40;;;;;;6146337;28;83267;-71
2021/12/29 13:14:32;;;;;;;18.40;11.27;;;22.80;39.50;;;;;;6153943;28;84212;-66
2021/12/29 13:17:33;;;;;;;19.98;13.15;;;22.80;39.80;;;;;;6152544;28;83658;-68
2021/12/29 13:20:34;;;;;;;19.80;12.13;;;22.80;40.00;;;;;;6148749;28;82736;-73
2021/12/29 13:23:34;;;;;;;19.50;11.45;;;22.80;39.10;;;;;;6186923;28;83193;-73
2021/12/29 13:26:36;;;;;;;17.88;11.70;;;22.80;39.60;;;;;;6157529;28;83035;-72
2021/12/29 13:29:36;;;;;;;17.15;12.05;;;22.90;39.10;;;;;;6155969;28;83153;-72
2021/12/29 13:32:37;;;;;;;19.88;12.10;;;22.90;38.90;;;;;;6155670;28;83434;-73
2021/12/29 13:35:37;;;;;;;22.55;12.75;;;22.90;38.80;;;;;;6154753;28;83482;-73
2021/12/29 13:38:38;;;;;;;28.83;12.88;;;22.90;38.80;;;;;;6153256;28;85569;-73
2021/12/29 13:41:38;;;;;;;25.27;12.70;;;22.80;38.90;;;;;;6137271;28;84277;-70
2021/12/29 13:44:39;;;;;;;19.38;11.82;;;22.80;39.30;;;;;;6157622;28;83102;-70
2021/12/29 13:47:42;;;;;;;19.15;11.38;;;22.80;39.40;;;;;;6155485;28;84826;-70
2021/12/29 13:50:42;;;;;;;17.73;11.15;;;22.70;39.40;;;;;;6156061;28;83081;-68
2021/12/29 13:53:43;;;;;;;20.40;12.40;;;22.70;39.70;;;;;;6158014;28;83370;-70
2021/12/29 13:56:43;;;;;;;20.92;12.32;;;22.70;39.60;;;;;;6155375;28;83599;-70
2021/12/29 13:59:44;;;;;;;19.17;11.63;;;22.60;39.80;;;;;;6154538;28;83995;-70
2021/12/29 14:02:45;;;;;;;15.77;10.27;;;22.60;39.90;;;;;;6154998;28;89430;-71
2021/12/29 14:05:46;;;;;;;16.55;11.02;;;22.60;39.60;;;;;;6153521;28;86174;-67
2021/12/29 14:08:46;;;;;;;21.00;12.45;;;22.60;39.80;;;;;;6156417;28;83649;-70
2021/12/29 14:11:47;;;;;;;20.75;11.60;;;22.50;39.90;;;;;;6155853;28;83978;-70
2021/12/29 14:14:47;;;;;;;16.17;11.05;;;22.50;40.30;;;;;;6154075;28;83660;-69
2021/12/29 14:17:52;;;;;;;21.20;13.30;;;22.50;40.50;;;;;;6155744;28;83129;-66
2021/12/29 14:20:53;;;;;;;20.83;11.77;;;22.50;40.70;;;;;;6154923;28;83072;-68
2021/12/29 14:23:53;;;;;;;15.93;11.15;;;22.50;40.30;;;;;;6148431;28;83108;-71
2021/12/29 14:26:54;;;;;;;19.90;11.57;;;22.50;40.90;;;;;;6155912;28;84089;-66
2021/12/29 14:29:54;;;;;;;21.50;11.93;;;22.60;41.70;;;;;;6153888;28;84212;-70
2021/12/29 14:32:55;;;;;;;19.05;11.68;;;22.50;42.00;;;;;;6152906;28;84101;-67
2021/12/29 14:35:55;;;;;;;18.67;12.27;;;22.50;43.00;;;;;;6151146;28;83340;-71
2021/12/29 14:38:56;;;;;;;18.10;11.75;;;22.50;43.30;;;;;;6153355;28;82925;-69
2021/12/29 14:41:56;;;;;;;20.70;12.00;;;22.50;43.90;;;;;;6156039;28;83088;-70
2021/12/29 14:44:57;;;;;;;24.23;13.90;;;22.40;44.20;;;;;;6155552;28;85218;-71
2021/12/29 14:47:57;;;;;;;22.92;14.13;;;22.40;44.90;;;;;;6157048;28;83172;-69
2021/12/29 14:50:58;;;;;;;25.52;15.38;;;22.40;44.90;;;;;;6153293;28;84032;-70
2021/12/29 14:53:58;;;;;;;24.38;14.48;;;22.40;45.20;;;;;;6154756;28;83493;-72
2021/12/29 14:56:59;;;;;;;24.90;16.02;;;22.40;45.60;;;;;;6159664;28;83051;-72
2021/12/29 14:59:59;;;;;;;26.92;16.55;;;22.30;46.30;;;;;;6154836;28;83295;-71
2021/12/29 15:03:01;;;;;;;27.58;15.95;;;22.30;47.10;;;;;;6152787;28;83031;-74
2021/12/29 15:06:01;;;;;;;27.95;17.23;;;22.40;47.40;;;;;;6157334;28;83691;-72
2021/12/29 15:09:02;;;;;;;30.13;17.67;;;22.30;48.00;;;;;;6158221;28;84337;-68
2021/12/29 15:12:02;;;;;;;31.73;17.50;;;22.30;48.40;;;;;;6155562;28;83579;-71
2021/12/29 15:15:03;;;;;;;34.47;17.60;;;22.30;49.40;;;;;;6158895;28;83144;-69
2021/12/29 15:18:03;;;;;;;34.53;18.88;;;22.40;51.20;;;;;;6156543;28;83450;-70
2021/12/29 15:21:04;;;;;;;34.63;19.67;;;22.40;51.60;;;;;;6155186;28;84051;-74
2021/12/29 15:24:04;;;;;;;55.35;21.17;;;22.40;53.10;;;;;;6152712;28;83344;-75